sensor_id;sensor_type;location;lat;lon;timestamp;P1;durP1;ratioP1;P2;durP2;ratioP2
23588;SDS011;11972;48.078;11.876;2024-02-16T00:00:36;8.98;;;7.85;;
23588;SDS011;11972;48.078;11.876;2024-02-16T00:04:37;8.38;;;7.57;;
23588;SDS011;11972;48.078;11.876;2024-02-16T00:08:37;9.23;;;6.97;;
23588;SDS011;11972;48.078;11.876;2024-02-16T00:12:38;8.18;;;7.38;;
23588;SDS011;11972;48.078;11.876;2024-02-16T00:16:40;8.05;;;7.25;;
23588;SDS011;11972;48.078;11.876;2024-02-16T00:20:40;11.70;;;7.38;;
23588;SDS011;11972;48.078;11.876;2024-02-16T00:24:40;8.65;;;6.13;;
23588;SDS011;11972;48.078;11.876;2024-02-16T00:28:41;6.85;;;6.15;;
23588;SDS011;11972;48.078;11.876;2024-02-16T00:32:42;7.28;;;6.00;;
23588;SDS011;11972;48.078;11.876;2024-02-16T00:36:45;8.15;;;6.25;;
23588;SDS011;11972;48.078;11.876;2024-02-16T00:40:45;7.68;;;6.60;;
23588;SDS011;11972;48.078;11.876;2024-02-16T00:44:46;6.80;;;6.10;;
23588;SDS011;11972;48.078;11.876;2024-02-16T00:48:46;8.80;;;6.40;;
23588;SDS011;11972;48.078;11.876;2024-02-16T00:52:47;8.85;;;6.50;;
23588;SDS011;11972;48.078;11.876;2024-02-16T00:56:47;6.20;;;5.70;;
23588;SDS011;11972;48.078;11.876;2024-02-16T01:00:48;7.40;;;6.70;;
23588;SDS011;11972;48.078;11.876;2024-02-16T01:04:49;6.53;;;5.90;;
23588;SDS011;11972;48.078;11.876;2024-02-16T01:08:50;6.63;;;6.03;;
23588;SDS011;11972;48.078;11.876;2024-02-16T01:12:50;5.78;;;5.38;;
23588;SDS011;11972;48.078;11.876;2024-02-16T01:16:52;15.55;;;9.85;;
23588;SDS011;11972;48.078;11.876;2024-02-16T01:20:53;11.57;;;8.45;;
23588;SDS011;11972;48.078;11.876;2024-02-16T01:24:53;8.93;;;7.50;;
23588;SDS011;11972;48.078;11.876;2024-02-16T01:28:53;6.75;;;6.00;;
23588;SDS011;11972;48.078;11.876;2024-02-16T01:32:54;6.22;;;5.30;;
23588;SDS011;11972;48.078;11.876;2024-02-16T01:36:54;7.10;;;4.97;;
23588;SDS011;11972;48.078;11.876;2024-02-16T01:40:54;5.05;;;4.65;;
23588;SDS011;11972;48.078;11.876;2024-02-16T01:44:55;8.70;;;4.75;;
23588;SDS011;11972;48.078;11.876;2024-02-16T01:48:55;4.82;;;4.40;;
23588;SDS011;11972;48.078;11.876;2024-02-16T01:52:55;4.82;;;4.30;;
23588;SDS011;11972;48.078;11.876;2024-02-16T01:56:56;5.32;;;4.10;;
23588;SDS011;11972;48.078;11.876;2024-02-16T02:00:56;4.70;;;3.85;;
23588;SDS011;11972;48.078;11.876;2024-02-16T02:04:57;4.45;;;3.58;;
23588;SDS011;11972;48.078;11.876;2024-02-16T02:08:57;4.15;;;3.47;;
23588;SDS011;11972;48.078;11.876;2024-02-16T02:12:57;3.65;;;3.30;;
23588;SDS011;11972;48.078;11.876;2024-02-16T02:16:58;3.65;;;3.17;;
23588;SDS011;11972;48.078;11.876;2024-02-16T02:20:58;4.25;;;3.40;;
23588;SDS011;11972;48.078;11.876;2024-02-16T02:24:59;3.22;;;2.95;;
23588;SDS011;11972;48.078;11.876;2024-02-16T02:28:59;4.35;;;3.15;;
23588;SDS011;11972;48.078;11.876;2024-02-16T02:33:00;4.97;;;2.90;;
23588;SDS011;11972;48.078;11.876;2024-02-16T02:37:00;3.90;;;3.10;;
23588;SDS011;11972;48.078;11.876;2024-02-16T02:41:01;3.30;;;3.00;;
23588;SDS011;11972;48.078;11.876;2024-02-16T02:45:01;3.40;;;3.10;;
23588;SDS011;11972;48.078;11.876;2024-02-16T02:49:02;3.60;;;2.92;;
23588;SDS011;11972;48.078;11.876;2024-02-16T02:53:03;3.40;;;2.88;;
23588;SDS011;11972;48.078;11.876;2024-02-16T02:57:04;3.92;;;2.67;;
23588;SDS011;11972;48.078;11.876;2024-02-16T03:01:04;4.72;;;2.78;;
23588;SDS011;11972;48.078;11.876;2024-02-16T03:05:07;2.80;;;2.60;;
23588;SDS011;11972;48.078;11.876;2024-02-16T03:09:08;4.32;;;2.67;;
23588;SDS011;11972;48.078;11.876;2024-02-16T03:13:08;5.05;;;2.78;;
23588;SDS011;11972;48.078;11.876;2024-02-16T03:17:09;3.03;;;2.72;;
23588;SDS011;11972;48.078;11.876;2024-02-16T03:21:12;3.92;;;2.85;;
23588;SDS011;11972;48.078;11.876;2024-02-16T03:25:15;2.88;;;2.60;;
23588;SDS011;11972;48.078;11.876;2024-02-16T03:29:15;2.92;;;2.28;;
23588;SDS011;11972;48.078;11.876;2024-02-16T03:33:16;2.00;;;1.70;;
23588;SDS011;11972;48.078;11.876;2024-02-16T03:37:16;2.08;;;1.83;;
23588;SDS011;11972;48.078;11.876;2024-02-16T03:41:21;2.97;;;1.80;;
23588;SDS011;11972;48.078;11.876;2024-02-16T03:45:23;2.17;;;1.80;;
23588;SDS011;11972;48.078;11.876;2024-02-16T03:49:24;1.98;;;1.77;;
23588;SDS011;11972;48.078;11.876;2024-02-16T03:53:25;1.75;;;1.55;;
23588;SDS011;11972;48.078;11.876;2024-02-16T03:57:26;2.28;;;1.55;;
23588;SDS011;11972;48.078;11.876;2024-02-16T04:01:26;2.38;;;1.40;;
23588;SDS011;11972;48.078;11.876;2024-02-16T04:05:26;1.65;;;1.33;;
23588;SDS011;11972;48.078;11.876;2024-02-16T04:09:31;1.70;;;1.50;;
23588;SDS011;11972;48.078;11.876;2024-02-16T04:13:31;1.60;;;1.50;;
23588;SDS011;11972;48.078;11.876;2024-02-16T04:17:32;2.90;;;1.30;;
23588;SDS011;11972;48.078;11.876;2024-02-16T04:21:32;2.72;;;1.30;;
23588;SDS011;11972;48.078;11.876;2024-02-16T04:25:33;2.17;;;1.50;;
23588;SDS011;11972;48.078;11.876;2024-02-16T04:29:33;2.75;;;1.63;;
23588;SDS011;11972;48.078;11.876;2024-02-16T04:33:33;1.93;;;1.30;;
23588;SDS011;11972;48.078;11.876;2024-02-16T04:37:34;1.40;;;1.30;;
23588;SDS011;11972;48.078;11.876;2024-02-16T04:41:34;1.42;;;1.33;;
23588;SDS011;11972;48.078;11.876;2024-02-16T04:45:35;1.98;;;1.52;;
23588;SDS011;11972;48.078;11.876;2024-02-16T04:49:35;2.85;;;1.50;;
23588;SDS011;11972;48.078;11.876;2024-02-16T04:53:36;2.22;;;1.60;;
23588;SDS011;11972;48.078;11.876;2024-02-16T04:57:37;1.83;;;1.55;;
23588;SDS011;11972;48.078;11.876;2024-02-16T05:01:37;1.85;;;1.60;;
23588;SDS011;11972;48.078;11.876;2024-02-16T05:05:37;1.67;;;1.52;;
23588;SDS011;11972;48.078;11.876;2024-02-16T05:09:38;2.55;;;1.85;;
23588;SDS011;11972;48.078;11.876;2024-02-16T05:13:39;3.28;;;1.85;;
23588;SDS011;11972;48.078;11.876;2024-02-16T05:17:46;4.50;;;2.22;;
23588;SDS011;11972;48.078;11.876;2024-02-16T05:21:48;2.70;;;1.92;;
23588;SDS011;11972;48.078;11.876;2024-02-16T05:25:48;3.97;;;2.47;;
23588;SDS011;11972;48.078;11.876;2024-02-16T05:29:48;2.50;;;2.00;;
23588;SDS011;11972;48.078;11.876;2024-02-16T05:33:50;2.10;;;1.90;;
23588;SDS011;11972;48.078;11.876;2024-02-16T05:37:51;3.53;;;1.90;;
23588;SDS011;11972;48.078;11.876;2024-02-16T05:41:52;1.80;;;1.70;;
23588;SDS011;11972;48.078;11.876;2024-02-16T05:45:53;2.85;;;2.25;;
23588;SDS011;11972;48.078;11.876;2024-02-16T05:49:54;2.40;;;1.88;;
23588;SDS011;11972;48.078;11.876;2024-02-16T05:53:54;5.45;;;2.20;;
23588;SDS011;11972;48.078;11.876;2024-02-16T05:57:55;2.50;;;2.17;;
23588;SDS011;11972;48.078;11.876;2024-02-16T06:01:55;2.78;;;2.17;;
23588;SDS011;11972;48.078;11.876;2024-02-16T06:05:55;2.70;;;2.25;;
23588;SDS011;11972;48.078;11.876;2024-02-16T06:09:56;2.78;;;1.80;;
23588;SDS011;11972;48.078;11.876;2024-02-16T06:13:56;2.35;;;2.15;;
23588;SDS011;11972;48.078;11.876;2024-02-16T06:17:56;2.33;;;2.10;;
23588;SDS011;11972;48.078;11.876;2024-02-16T06:21:57;2.83;;;2.28;;
23588;SDS011;11972;48.078;11.876;2024-02-16T06:25:58;3.35;;;2.63;;
23588;SDS011;11972;48.078;11.876;2024-02-16T06:29:58;2.08;;;1.83;;
23588;SDS011;11972;48.078;11.876;2024-02-16T06:33:58;2.88;;;2.60;;
23588;SDS011;11972;48.078;11.876;2024-02-16T06:37:59;2.60;;;2.40;;
23588;SDS011;11972;48.078;11.876;2024-02-16T06:41:59;3.20;;;2.70;;
23588;SDS011;11972;48.078;11.876;2024-02-16T06:46:00;2.38;;;2.15;;
23588;SDS011;11972;48.078;11.876;2024-02-16T06:50:00;2.38;;;2.05;;
23588;SDS011;11972;48.078;11.876;2024-02-16T06:54:01;2.45;;;2.20;;
23588;SDS011;11972;48.078;11.876;2024-02-16T06:58:02;2.65;;;2.05;;
23588;SDS011;11972;48.078;11.876;2024-02-16T07:02:03;2.13;;;1.92;;
23588;SDS011;11972;48.078;11.876;2024-02-16T07:06:03;2.22;;;2.03;;
23588;SDS011;11972;48.078;11.876;2024-02-16T07:10:07;3.50;;;1.80;;
23588;SDS011;11972;48.078;11.876;2024-02-16T07:14:13;2.90;;;2.47;;
23588;SDS011;11972;48.078;11.876;2024-02-16T07:18:13;5.20;;;4.03;;
23588;SDS011;11972;48.078;11.876;2024-02-16T07:22:15;2.42;;;1.85;;
23588;SDS011;11972;48.078;11.876;2024-02-16T07:26:15;5.05;;;2.63;;
23588;SDS011;11972;48.078;11.876;2024-02-16T07:30:17;3.65;;;2.53;;
23588;SDS011;11972;48.078;11.876;2024-02-16T07:34:17;3.60;;;2.80;;
23588;SDS011;11972;48.078;11.876;2024-02-16T07:38:17;3.67;;;3.00;;
23588;SDS011;11972;48.078;11.876;2024-02-16T07:42:18;3.33;;;2.93;;
23588;SDS011;11972;48.078;11.876;2024-02-16T07:46:18;3.13;;;2.40;;
23588;SDS011;11972;48.078;11.876;2024-02-16T07:50:19;4.63;;;2.17;;
23588;SDS011;11972;48.078;11.876;2024-02-16T07:54:20;3.63;;;2.10;;
23588;SDS011;11972;48.078;11.876;2024-02-16T07:58:21;2.92;;;2.28;;
23588;SDS011;11972;48.078;11.876;2024-02-16T08:02:21;2.00;;;1.65;;
23588;SDS011;11972;48.078;11.876;2024-02-16T08:06:24;3.88;;;2.88;;
23588;SDS011;11972;48.078;11.876;2024-02-16T08:10:25;3.75;;;2.80;;
23588;SDS011;11972;48.078;11.876;2024-02-16T08:14:26;5.88;;;3.03;;
23588;SDS011;11972;48.078;11.876;2024-02-16T08:18:26;3.95;;;3.30;;
23588;SDS011;11972;48.078;11.876;2024-02-16T08:22:26;3.97;;;3.58;;
23588;SDS011;11972;48.078;11.876;2024-02-16T08:26:27;3.63;;;2.90;;
23588;SDS011;11972;48.078;11.876;2024-02-16T08:30:27;3.83;;;3.10;;
23588;SDS011;11972;48.078;11.876;2024-02-16T08:34:27;3.50;;;1.97;;
23588;SDS011;11972;48.078;11.876;2024-02-16T08:38:28;1.90;;;1.70;;
23588;SDS011;11972;48.078;11.876;2024-02-16T08:42:28;2.60;;;1.70;;
23588;SDS011;11972;48.078;11.876;2024-02-16T08:46:28;2.00;;;1.30;;
23588;SDS011;11972;48.078;11.876;2024-02-16T08:50:29;2.22;;;1.00;;
23588;SDS011;11972;48.078;11.876;2024-02-16T08:54:30;1.42;;;1.00;;
23588;SDS011;11972;48.078;11.876;2024-02-16T08:58:30;3.90;;;1.33;;
23588;SDS011;11972;48.078;11.876;2024-02-16T09:02:31;1.27;;;1.13;;
23588;SDS011;11972;48.078;11.876;2024-02-16T09:06:31;1.80;;;0.90;;
23588;SDS011;11972;48.078;11.876;2024-02-16T09:10:31;2.10;;;0.93;;
23588;SDS011;11972;48.078;11.876;2024-02-16T09:14:32;1.45;;;0.90;;
23588;SDS011;11972;48.078;11.876;2024-02-16T09:18:32;1.52;;;1.02;;
23588;SDS011;11972;48.078;11.876;2024-02-16T09:22:33;1.48;;;1.05;;
23588;SDS011;11972;48.078;11.876;2024-02-16T09:26:36;1.52;;;0.88;;
23588;SDS011;11972;48.078;11.876;2024-02-16T09:30:37;1.30;;;0.70;;
23588;SDS011;11972;48.078;11.876;2024-02-16T09:34:37;1.02;;;0.93;;
23588;SDS011;11972;48.078;11.876;2024-02-16T09:38:38;1.70;;;0.90;;
23588;SDS011;11972;48.078;11.876;2024-02-16T09:42:38;2.63;;;0.90;;
23588;SDS011;11972;48.078;11.876;2024-02-16T09:46:39;1.60;;;0.98;;
23588;SDS011;11972;48.078;11.876;2024-02-16T09:50:39;1.00;;;0.80;;
23588;SDS011;11972;48.078;11.876;2024-02-16T09:54:40;1.00;;;0.80;;
23588;SDS011;11972;48.078;11.876;2024-02-16T09:58:40;0.93;;;0.80;;
23588;SDS011;11972;48.078;11.876;2024-02-16T10:02:41;0.90;;;0.90;;
23588;SDS011;11972;48.078;11.876;2024-02-16T10:06:46;1.52;;;0.63;;
23588;SDS011;11972;48.078;11.876;2024-02-16T10:10:50;1.17;;;0.73;;
23588;SDS011;11972;48.078;11.876;2024-02-16T10:15:01;0.95;;;0.57;;
23588;SDS011;11972;48.078;11.876;2024-02-16T10:19:05;1.42;;;0.60;;
23588;SDS011;11972;48.078;11.876;2024-02-16T10:23:10;0.70;;;0.60;;
23588;SDS011;11972;48.078;11.876;2024-02-16T10:27:15;3.47;;;0.70;;
23588;SDS011;11972;48.078;11.876;2024-02-16T10:31:18;1.83;;;0.60;;
23588;SDS011;11972;48.078;11.876;2024-02-16T10:35:25;0.90;;;0.57;;
23588;SDS011;11972;48.078;11.876;2024-02-16T10:39:29;0.68;;;0.50;;
23588;SDS011;11972;48.078;11.876;2024-02-16T10:43:30;2.03;;;0.60;;
23588;SDS011;11972;48.078;11.876;2024-02-16T10:47:31;0.88;;;0.52;;
23588;SDS011;11972;48.078;11.876;2024-02-16T10:51:35;0.60;;;0.50;;
23588;SDS011;11972;48.078;11.876;2024-02-16T10:55:36;0.90;;;0.40;;
23588;SDS011;11972;48.078;11.876;2024-02-16T10:59:43;0.40;;;0.40;;
23588;SDS011;11972;48.078;11.876;2024-02-16T11:03:45;0.73;;;0.57;;
23588;SDS011;11972;48.078;11.876;2024-02-16T11:07:45;1.00;;;0.90;;
23588;SDS011;11972;48.078;11.876;2024-02-16T11:11:51;0.88;;;0.30;;
23588;SDS011;11972;48.078;11.876;2024-02-16T11:15:59;0.75;;;0.40;;
23588;SDS011;11972;48.078;11.876;2024-02-16T11:20:03;0.95;;;0.40;;
23588;SDS011;11972;48.078;11.876;2024-02-16T11:24:07;0.47;;;0.38;;
23588;SDS011;11972;48.078;11.876;2024-02-16T11:28:11;0.73;;;0.40;;
23588;SDS011;11972;48.078;11.876;2024-02-16T11:32:13;0.75;;;0.50;;
23588;SDS011;11972;48.078;11.876;2024-02-16T11:36:16;0.55;;;0.40;;
23588;SDS011;11972;48.078;11.876;2024-02-16T11:40:19;4.15;;;0.73;;
23588;SDS011;11972;48.078;11.876;2024-02-16T11:44:19;0.63;;;0.50;;
23588;SDS011;11972;48.078;11.876;2024-02-16T11:48:20;0.83;;;0.50;;
23588;SDS011;11972;48.078;11.876;2024-02-16T11:52:24;0.52;;;0.43;;
23588;SDS011;11972;48.078;11.876;2024-02-16T11:56:25;0.80;;;0.50;;
23588;SDS011;11972;48.078;11.876;2024-02-16T12:00:25;0.95;;;0.50;;
23588;SDS011;11972;48.078;11.876;2024-02-16T12:04:27;1.02;;;0.45;;
23588;SDS011;11972;48.078;11.876;2024-02-16T12:08:32;0.70;;;0.43;;
23588;SDS011;11972;48.078;11.876;2024-02-16T12:12:33;0.85;;;0.52;;
23588;SDS011;11972;48.078;11.876;2024-02-16T12:16:34;1.45;;;0.40;;
23588;SDS011;11972;48.078;11.876;2024-02-16T12:20:36;1.75;;;0.60;;
23588;SDS011;11972;48.078;11.876;2024-02-16T12:24:37;0.70;;;0.50;;
23588;SDS011;11972;48.078;11.876;2024-02-16T12:28:37;1.92;;;0.50;;
23588;SDS011;11972;48.078;11.876;2024-02-16T12:32:37;2.10;;;0.70;;
23588;SDS011;11972;48.078;11.876;2024-02-16T12:36:40;0.70;;;0.50;;
23588;SDS011;11972;48.078;11.876;2024-02-16T12:40:42;0.90;;;0.47;;
23588;SDS011;11972;48.078;11.876;2024-02-16T12:44:43;1.77;;;0.50;;
23588;SDS011;11972;48.078;11.876;2024-02-16T12:48:44;1.00;;;0.63;;
23588;SDS011;11972;48.078;11.876;2024-02-16T12:52:44;1.50;;;0.50;;
23588;SDS011;11972;48.078;11.876;2024-02-16T12:56:46;0.60;;;0.50;;
23588;SDS011;11972;48.078;11.876;2024-02-16T13:00:48;1.30;;;0.50;;
23588;SDS011;11972;48.078;11.876;2024-02-16T13:04:48;1.03;;;0.60;;
23588;SDS011;11972;48.078;11.876;2024-02-16T13:08:49;1.23;;;0.60;;
23588;SDS011;11972;48.078;11.876;2024-02-16T13:12:49;2.85;;;0.63;;
23588;SDS011;11972;48.078;11.876;2024-02-16T13:16:49;0.70;;;0.60;;
23588;SDS011;11972;48.078;11.876;2024-02-16T13:20:50;1.00;;;0.67;;
23588;SDS011;11972;48.078;11.876;2024-02-16T13:24:50;1.17;;;0.63;;
23588;SDS011;11972;48.078;11.876;2024-02-16T13:28:51;0.73;;;0.60;;
23588;SDS011;11972;48.078;11.876;2024-02-16T13:32:52;1.35;;;0.77;;
23588;SDS011;11972;48.078;11.876;2024-02-16T13:36:53;1.70;;;0.70;;
23588;SDS011;11972;48.078;11.876;2024-02-16T13:40:53;0.90;;;0.80;;
23588;SDS011;11972;48.078;11.876;2024-02-16T13:44:53;1.92;;;0.70;;
23588;SDS011;11972;48.078;11.876;2024-02-16T13:48:54;1.40;;;0.70;;
23588;SDS011;11972;48.078;11.876;2024-02-16T13:52:56;1.83;;;0.60;;
23588;SDS011;11972;48.078;11.876;2024-02-16T13:56:56;3.47;;;0.50;;
23588;SDS011;11972;48.078;11.876;2024-02-16T14:00:57;1.70;;;0.90;;
23588;SDS011;11972;48.078;11.876;2024-02-16T14:04:59;0.85;;;0.55;;
23588;SDS011;11972;48.078;11.876;2024-02-16T14:09:00;1.40;;;0.60;;
23588;SDS011;11972;48.078;11.876;2024-02-16T14:13:01;2.10;;;0.80;;
23588;SDS011;11972;48.078;11.876;2024-02-16T14:17:01;2.83;;;0.77;;
23588;SDS011;11972;48.078;11.876;2024-02-16T14:21:02;1.97;;;0.70;;
23588;SDS011;11972;48.078;11.876;2024-02-16T14:25:03;1.15;;;0.80;;
23588;SDS011;11972;48.078;11.876;2024-02-16T14:29:04;1.35;;;0.70;;
23588;SDS011;11972;48.078;11.876;2024-02-16T14:33:05;2.85;;;0.73;;
23588;SDS011;11972;48.078;11.876;2024-02-16T14:37:05;2.00;;;0.70;;
23588;SDS011;11972;48.078;11.876;2024-02-16T14:41:06;2.75;;;0.98;;
23588;SDS011;11972;48.078;11.876;2024-02-16T14:45:06;3.42;;;0.90;;
23588;SDS011;11972;48.078;11.876;2024-02-16T14:49:09;3.72;;;1.02;;
23588;SDS011;11972;48.078;11.876;2024-02-16T14:53:10;4.18;;;0.93;;
23588;SDS011;11972;48.078;11.876;2024-02-16T14:57:10;6.55;;;0.70;;
23588;SDS011;11972;48.078;11.876;2024-02-16T15:01:10;0.95;;;0.70;;
23588;SDS011;11972;48.078;11.876;2024-02-16T15:05:12;3.03;;;0.85;;
23588;SDS011;11972;48.078;11.876;2024-02-16T15:09:12;1.98;;;0.95;;
23588;SDS011;11972;48.078;11.876;2024-02-16T15:13:13;2.53;;;0.85;;
23588;SDS011;11972;48.078;11.876;2024-02-16T15:17:13;3.70;;;0.98;;
23588;SDS011;11972;48.078;11.876;2024-02-16T15:21:14;2.40;;;0.82;;
23588;SDS011;11972;48.078;11.876;2024-02-16T15:25:14;2.28;;;0.95;;
23588;SDS011;11972;48.078;11.876;2024-02-16T15:29:15;1.95;;;0.90;;
23588;SDS011;11972;48.078;11.876;2024-02-16T15:33:15;3.75;;;1.00;;
23588;SDS011;11972;48.078;11.876;2024-02-16T15:37:16;1.25;;;0.93;;
23588;SDS011;11972;48.078;11.876;2024-02-16T15:41:16;2.93;;;1.00;;
23588;SDS011;11972;48.078;11.876;2024-02-16T15:45:17;3.28;;;0.90;;
23588;SDS011;11972;48.078;11.876;2024-02-16T15:49:18;2.47;;;1.00;;
23588;SDS011;11972;48.078;11.876;2024-02-16T15:53:18;5.68;;;2.38;;
23588;SDS011;11972;48.078;11.876;2024-02-16T15:57:19;3.40;;;1.13;;
23588;SDS011;11972;48.078;11.876;2024-02-16T16:01:19;1.50;;;0.70;;
23588;SDS011;11972;48.078;11.876;2024-02-16T16:05:20;3.00;;;0.90;;
23588;SDS011;11972;48.078;11.876;2024-02-16T16:09:20;3.85;;;0.85;;
23588;SDS011;11972;48.078;11.876;2024-02-16T16:13:21;2.63;;;0.70;;
23588;SDS011;11972;48.078;11.876;2024-02-16T16:17:21;2.58;;;1.00;;
23588;SDS011;11972;48.078;11.876;2024-02-16T16:21:22;2.40;;;0.90;;
23588;SDS011;11972;48.078;11.876;2024-02-16T16:25:23;3.50;;;0.90;;
23588;SDS011;11972;48.078;11.876;2024-02-16T16:29:23;2.53;;;1.27;;
23588;SDS011;11972;48.078;11.876;2024-02-16T16:33:24;1.85;;;0.80;;
23588;SDS011;11972;48.078;11.876;2024-02-16T16:37:24;2.50;;;0.88;;
23588;SDS011;11972;48.078;11.876;2024-02-16T16:41:24;2.57;;;0.87;;
23588;SDS011;11972;48.078;11.876;2024-02-16T16:45:25;2.63;;;1.25;;
23588;SDS011;11972;48.078;11.876;2024-02-16T16:49:25;6.32;;;1.17;;
23588;SDS011;11972;48.078;11.876;2024-02-16T16:53:26;2.97;;;0.95;;
23588;SDS011;11972;48.078;11.876;2024-02-16T16:57:26;2.43;;;1.03;;
23588;SDS011;11972;48.078;11.876;2024-02-16T17:01:28;3.50;;;0.90;;
23588;SDS011;11972;48.078;11.876;2024-02-16T17:05:28;3.72;;;1.27;;
23588;SDS011;11972;48.078;11.876;2024-02-16T17:09:28;4.47;;;1.05;;
23588;SDS011;11972;48.078;11.876;2024-02-16T17:13:29;2.40;;;0.90;;
23588;SDS011;11972;48.078;11.876;2024-02-16T17:17:29;1.70;;;0.90;;
23588;SDS011;11972;48.078;11.876;2024-02-16T17:21:31;1.83;;;0.82;;
23588;SDS011;11972;48.078;11.876;2024-02-16T17:25:32;3.53;;;0.90;;
23588;SDS011;11972;48.078;11.876;2024-02-16T17:29:32;4.00;;;1.00;;
23588;SDS011;11972;48.078;11.876;2024-02-16T17:33:33;3.83;;;0.98;;
23588;SDS011;11972;48.078;11.876;2024-02-16T17:37:33;4.20;;;1.13;;
23588;SDS011;11972;48.078;11.876;2024-02-16T17:41:34;2.08;;;1.25;;
23588;SDS011;11972;48.078;11.876;2024-02-16T17:45:34;3.65;;;1.30;;
23588;SDS011;11972;48.078;11.876;2024-02-16T17:49:35;4.13;;;1.73;;
23588;SDS011;11972;48.078;11.876;2024-02-16T17:53:35;4.05;;;1.58;;
23588;SDS011;11972;48.078;11.876;2024-02-16T17:57:35;2.72;;;1.67;;
23588;SDS011;11972;48.078;11.876;2024-02-16T18:01:36;3.53;;;1.40;;
23588;SDS011;11972;48.078;11.876;2024-02-16T18:05:37;3.28;;;1.60;;
23588;SDS011;11972;48.078;11.876;2024-02-16T18:09:37;2.00;;;1.20;;
23588;SDS011;11972;48.078;11.876;2024-02-16T18:13:37;1.63;;;1.15;;
23588;SDS011;11972;48.078;11.876;2024-02-16T18:17:38;2.10;;;1.55;;
23588;SDS011;11972;48.078;11.876;2024-02-16T18:21:39;3.42;;;1.33;;
23588;SDS011;11972;48.078;11.876;2024-02-16T18:25:39;3.65;;;1.30;;
23588;SDS011;11972;48.078;11.876;2024-02-16T18:29:39;2.27;;;1.40;;
23588;SDS011;11972;48.078;11.876;2024-02-16T18:33:42;2.65;;;1.10;;
23588;SDS011;11972;48.078;11.876;2024-02-16T18:37:42;2.33;;;1.70;;
23588;SDS011;11972;48.078;11.876;2024-02-16T18:41:43;2.65;;;1.27;;
23588;SDS011;11972;48.078;11.876;2024-02-16T18:45:43;2.42;;;1.40;;
23588;SDS011;11972;48.078;11.876;2024-02-16T18:49:43;2.80;;;1.25;;
23588;SDS011;11972;48.078;11.876;2024-02-16T18:53:44;3.00;;;1.30;;
23588;SDS011;11972;48.078;11.876;2024-02-16T18:57:44;5.17;;;1.70;;
23588;SDS011;11972;48.078;11.876;2024-02-16T19:01:45;1.73;;;1.33;;
23588;SDS011;11972;48.078;11.876;2024-02-16T19:05:46;4.97;;;1.95;;
23588;SDS011;11972;48.078;11.876;2024-02-16T19:09:46;2.77;;;1.50;;
23588;SDS011;11972;48.078;11.876;2024-02-16T19:13:51;2.60;;;1.58;;
23588;SDS011;11972;48.078;11.876;2024-02-16T19:17:51;2.88;;;1.52;;
23588;SDS011;11972;48.078;11.876;2024-02-16T19:21:51;3.90;;;1.30;;
23588;SDS011;11972;48.078;11.876;2024-02-16T19:25:52;2.25;;;1.38;;
23588;SDS011;11972;48.078;11.876;2024-02-16T19:29:52;4.53;;;1.60;;
23588;SDS011;11972;48.078;11.876;2024-02-16T19:33:54;2.53;;;1.60;;
23588;SDS011;11972;48.078;11.876;2024-02-16T19:37:54;2.88;;;1.67;;
23588;SDS011;11972;48.078;11.876;2024-02-16T19:41:55;3.42;;;1.90;;
23588;SDS011;11972;48.078;11.876;2024-02-16T19:45:55;3.35;;;1.88;;
23588;SDS011;11972;48.078;11.876;2024-02-16T19:49:56;3.53;;;2.35;;
23588;SDS011;11972;48.078;11.876;2024-02-16T19:53:56;2.92;;;1.98;;
23588;SDS011;11972;48.078;11.876;2024-02-16T19:57:56;6.82;;;2.00;;
23588;SDS011;11972;48.078;11.876;2024-02-16T20:01:57;3.15;;;2.30;;
23588;SDS011;11972;48.078;11.876;2024-02-16T20:05:58;3.03;;;2.40;;
23588;SDS011;11972;48.078;11.876;2024-02-16T20:09:59;3.83;;;2.38;;
23588;SDS011;11972;48.078;11.876;2024-02-16T20:14:00;6.38;;;4.30;;
23588;SDS011;11972;48.078;11.876;2024-02-16T20:18:01;6.60;;;5.63;;
23588;SDS011;11972;48.078;11.876;2024-02-16T20:22:01;4.75;;;2.45;;
23588;SDS011;11972;48.078;11.876;2024-02-16T20:26:02;2.95;;;2.42;;
23588;SDS011;11972;48.078;11.876;2024-02-16T20:30:02;7.97;;;5.47;;
23588;SDS011;11972;48.078;11.876;2024-02-16T20:34:03;6.00;;;5.40;;
23588;SDS011;11972;48.078;11.876;2024-02-16T20:38:04;7.05;;;3.85;;
23588;SDS011;11972;48.078;11.876;2024-02-16T20:42:05;8.40;;;3.67;;
23588;SDS011;11972;48.078;11.876;2024-02-16T20:46:06;6.38;;;3.97;;
23588;SDS011;11972;48.078;11.876;2024-02-16T20:50:07;7.18;;;4.63;;
23588;SDS011;11972;48.078;11.876;2024-02-16T20:54:09;17.33;;;11.15;;
23588;SDS011;11972;48.078;11.876;2024-02-16T20:58:09;8.37;;;5.43;;
23588;SDS011;11972;48.078;11.876;2024-02-16T21:02:09;6.68;;;5.45;;
23588;SDS011;11972;48.078;11.876;2024-02-16T21:06:10;10.70;;;6.97;;
23588;SDS011;11972;48.078;11.876;2024-02-16T21:10:10;10.40;;;7.53;;
23588;SDS011;11972;48.078;11.876;2024-02-16T21:14:10;6.10;;;3.90;;
23588;SDS011;11972;48.078;11.876;2024-02-16T21:18:11;5.03;;;2.70;;
23588;SDS011;11972;48.078;11.876;2024-02-16T21:22:11;4.13;;;2.13;;
23588;SDS011;11972;48.078;11.876;2024-02-16T21:26:11;4.15;;;2.13;;
23588;SDS011;11972;48.078;11.876;2024-02-16T21:30:12;4.28;;;2.90;;
23588;SDS011;11972;48.078;11.876;2024-02-16T21:34:12;6.10;;;2.65;;
23588;SDS011;11972;48.078;11.876;2024-02-16T21:38:13;2.50;;;2.10;;
23588;SDS011;11972;48.078;11.876;2024-02-16T21:42:14;3.03;;;2.38;;
23588;SDS011;11972;48.078;11.876;2024-02-16T21:46:28;3.10;;;2.20;;
23588;SDS011;11972;48.078;11.876;2024-02-16T21:50:30;3.45;;;1.98;;
23588;SDS011;11972;48.078;11.876;2024-02-16T21:54:33;3.85;;;1.98;;
23588;SDS011;11972;48.078;11.876;2024-02-16T21:58:35;3.58;;;1.92;;
23588;SDS011;11972;48.078;11.876;2024-02-16T22:02:35;5.78;;;2.30;;
23588;SDS011;11972;48.078;11.876;2024-02-16T22:06:36;4.32;;;2.20;;
23588;SDS011;11972;48.078;11.876;2024-02-16T22:10:40;3.28;;;2.03;;
23588;SDS011;11972;48.078;11.876;2024-02-16T22:14:40;4.03;;;1.67;;
23588;SDS011;11972;48.078;11.876;2024-02-16T22:18:41;4.22;;;2.00;;
23588;SDS011;11972;48.078;11.876;2024-02-16T22:22:44;4.88;;;1.90;;
23588;SDS011;11972;48.078;11.876;2024-02-16T22:26:44;5.37;;;1.80;;
23588;SDS011;11972;48.078;11.876;2024-02-16T22:30:44;3.35;;;1.88;;
23588;SDS011;11972;48.078;11.876;2024-02-16T22:34:45;2.90;;;2.13;;
23588;SDS011;11972;48.078;11.876;2024-02-16T22:38:45;3.43;;;2.00;;
23588;SDS011;11972;48.078;11.876;2024-02-16T22:42:45;4.32;;;1.90;;
23588;SDS011;11972;48.078;11.876;2024-02-16T22:46:46;4.28;;;2.40;;
23588;SDS011;11972;48.078;11.876;2024-02-16T22:50:46;4.72;;;1.92;;
23588;SDS011;11972;48.078;11.876;2024-02-16T22:54:47;1.90;;;1.38;;
23588;SDS011;11972;48.078;11.876;2024-02-16T22:58:47;4.85;;;2.10;;
23588;SDS011;11972;48.078;11.876;2024-02-16T23:02:47;6.90;;;2.13;;
23588;SDS011;11972;48.078;11.876;2024-02-16T23:06:48;5.40;;;2.55;;
23588;SDS011;11972;48.078;11.876;2024-02-16T23:10:48;4.53;;;2.10;;
23588;SDS011;11972;48.078;11.876;2024-02-16T23:14:49;4.80;;;2.35;;
23588;SDS011;11972;48.078;11.876;2024-02-16T23:18:49;3.33;;;2.22;;
23588;SDS011;11972;48.078;11.876;2024-02-16T23:22:57;3.42;;;2.65;;
23588;SDS011;11972;48.078;11.876;2024-02-16T23:26:58;4.68;;;2.58;;
23588;SDS011;11972;48.078;11.876;2024-02-16T23:30:58;3.25;;;2.20;;
23588;SDS011;11972;48.078;11.876;2024-02-16T23:34:58;5.13;;;3.10;;
23588;SDS011;11972;48.078;11.876;2024-02-16T23:38:59;6.53;;;3.38;;
23588;SDS011;11972;48.078;11.876;2024-02-16T23:42:59;8.13;;;3.00;;
23588;SDS011;11972;48.078;11.876;2024-02-16T23:46:59;4.57;;;3.28;;